Time;durP1;ratioP1;P1;durP2;ratioP2;P2;SDS_P1;SDS_P2;PMS_P1;PMS_P2;Temp;Humidity;BMP_temperature;BMP_pressure;BME280_temperature;BME280_humidity;BME280_pressure;Samples;Min_cycle;Max_cycle;Signal;HPM_P1;HPM_P2
2022/01/03 00:00:50;;;;;;;2.85;1.40;;;18.60;53.50;;;;;;4958055;29;20182;-83
2022/01/03 00:03:26;;;;;;;3.33;1.52;;;18.60;53.50;;;;;;4942148;29;20185;-83
2022/01/03 00:05:59;;;;;;;4.22;1.65;;;18.60;53.40;;;;;;4958046;29;20185;-84
2022/01/03 00:08:31;;;;;;;3.28;1.20;;;18.60;53.40;;;;;;4919647;29;20684;-84
2022/01/03 00:10:57;;;;;;;2.70;1.33;;;18.50;53.40;;;;;;4919667;29;20697;-84
2022/01/03 00:13:23;;;;;;;3.25;1.40;;;18.50;53.50;;;;;;4919536;29;20194;-86
2022/01/03 00:15:55;;;;;;;3.55;1.60;;;18.60;53.40;;;;;;4919134;29;20218;-83
2022/01/03 00:18:24;;;;;;;3.22;1.40;;;18.50;53.40;;;;;;4919518;29;20214;-84
2022/01/03 00:20:59;;;;;;;3.30;1.40;;;18.50;53.50;;;;;;4956078;29;20640;-83
2022/01/03 00:23:30;;;;;;;3.75;1.33;;;18.50;53.40;;;;;;4931839;29;20192;-83
2022/01/03 00:26:02;;;;;;;4.30;1.40;;;18.50;53.30;;;;;;4949785;28;20184;-85
2022/01/03 00:28:36;;;;;;;4.70;1.38;;;18.50;53.40;;;;;;4976427;28;20192;-84
2022/01/03 00:31:11;;;;;;;4.38;1.30;;;18.50;53.20;;;;;;4937769;29;20190;-83
2022/01/03 00:33:48;;;;;;;4.78;1.33;;;18.50;53.40;;;;;;4943408;29;20197;-83
2022/01/03 00:36:16;;;;;;;5.40;1.50;;;18.50;53.40;;;;;;4957656;29;20640;-84
2022/01/03 00:38:47;;;;;;;2.03;1.20;;;18.50;53.40;;;;;;4957618;29;20181;-83
2022/01/03 00:41:13;;;;;;;4.10;1.42;;;18.50;53.50;;;;;;4942180;29;20187;-84
2022/01/03 00:43:48;;;;;;;7.75;1.50;;;18.50;53.30;;;;;;4941192;29;20547;-83
2022/01/03 00:46:17;;;;;;;3.28;1.15;;;18.50;53.40;;;;;;4919258;29;20193;-83
2022/01/03 00:48:43;;;;;;;6.53;1.40;;;18.50;53.40;;;;;;4903096;29;20194;-85
2022/01/03 00:51:24;;;;;;;4.68;1.30;;;18.60;53.40;;;;;;4927883;29;20584;-84
2022/01/03 00:53:51;;;;;;;4.95;1.20;;;18.50;53.30;;;;;;4944288;28;20244;-84
2022/01/03 00:56:37;;;;;;;5.30;1.50;;;18.40;53.30;;;;;;4960149;28;20548;-85
2022/01/03 00:59:12;;;;;;;2.20;1.15;;;18.50;53.30;;;;;;4941400;29;20185;-84
2022/01/03 01:01:44;;;;;;;2.13;1.30;;;18.50;53.30;;;;;;4938091;28;20195;-83
2022/01/03 01:04:09;;;;;;;1.77;1.20;;;18.50;53.50;;;;;;4953663;29;20178;-84
2022/01/03 01:06:41;;;;;;;4.53;1.50;;;18.50;53.50;;;;;;4956894;29;20253;-84
2022/01/03 01:09:07;;;;;;;3.83;1.58;;;18.50;54.10;;;;;;4967153;28;20184;-85
2022/01/03 01:14:56;;;;;;;2.75;1.50;;;18.50;53.40;;;;;;4994899;28;20191;-84
2022/01/03 01:17:28;;;;;;;4.03;1.35;;;18.50;53.50;;;;;;4993162;28;20197;-82
2022/01/03 01:19:58;;;;;;;6.00;1.50;;;18.40;53.30;;;;;;5034493;28;20174;-85
2022/01/03 01:22:29;;;;;;;2.10;1.20;;;18.50;53.50;;;;;;5017580;28;20213;-85
2022/01/03 01:27:50;;;;;;;2.97;1.55;;;18.40;53.60;;;;;;4995206;28;20195;-83
2022/01/03 01:30:22;;;;;;;3.80;1.45;;;18.40;54.30;;;;;;5002126;28;20192;-84
2022/01/03 01:33:08;;;;;;;3.60;1.67;;;18.40;53.70;;;;;;5013858;28;20281;-85
2022/01/03 01:35:53;;;;;;;3.30;1.15;;;18.50;53.70;;;;;;5025872;28;20292;-84
2022/01/03 01:38:29;;;;;;;2.53;1.50;;;18.50;53.60;;;;;;5034164;28;20183;-84
2022/01/03 01:40:59;;;;;;;3.47;1.42;;;18.40;53.50;;;;;;4978645;28;20645;-83
2022/01/03 01:43:39;;;;;;;3.72;1.63;;;18.40;53.60;;;;;;4994898;28;20215;-85
2022/01/03 01:46:28;;;;;;;2.83;1.40;;;18.40;53.50;;;;;;4956341;29;20185;-84
2022/01/03 01:48:56;;;;;;;2.10;1.45;;;18.40;53.50;;;;;;4923582;29;20185;-83
2022/01/03 01:51:28;;;;;;;3.65;1.38;;;18.40;53.70;;;;;;4917321;29;20186;-85
2022/01/03 01:53:55;;;;;;;2.08;1.13;;;18.40;53.70;;;;;;4902113;29;20230;-84
2022/01/03 01:56:37;;;;;;;2.17;1.20;;;18.40;53.60;;;;;;4902363;29;20218;-83
2022/01/03 01:59:20;;;;;;;4.20;1.40;;;18.30;53.60;;;;;;4851757;29;20276;-85
2022/01/03 02:01:51;;;;;;;4.03;1.30;;;18.30;53.90;;;;;;4868456;29;20602;-83
2022/01/03 02:04:39;;;;;;;5.07;1.40;;;18.30;53.70;;;;;;4868731;29;20240;-83
2022/01/03 02:07:39;;;;;;;7.70;1.40;;;18.40;53.60;;;;;;4884554;29;20719;-85
2022/01/03 02:10:10;;;;;;;3.90;1.40;;;18.40;53.60;;;;;;4868395;29;20200;-83
2022/01/03 02:12:43;;;;;;;4.18;1.30;;;18.40;53.50;;;;;;4896311;29;20194;-83
2022/01/03 02:15:14;;;;;;;2.72;1.70;;;18.40;53.60;;;;;;4920968;29;20241;-84
2022/01/03 02:17:48;;;;;;;3.13;1.48;;;18.40;53.50;;;;;;4919754;29;20230;-83
2022/01/03 02:20:27;;;;;;;2.10;1.30;;;18.30;53.50;;;;;;4951788;29;20563;-86
2022/01/03 02:23:08;;;;;;;2.22;1.40;;;18.30;53.60;;;;;;4947535;29;20185;-84
2022/01/03 02:25:35;;;;;;;4.40;1.50;;;18.40;53.60;;;;;;4963282;28;20189;-84
2022/01/03 02:28:01;;;;;;;4.22;1.45;;;18.30;53.50;;;;;;4931749;29;20264;-84
2022/01/03 02:30:35;;;;;;;5.57;1.50;;;18.30;53.50;;;;;;4959264;29;20245;-84
2022/01/03 02:33:10;;;;;;;3.13;1.27;;;18.30;53.50;;;;;;4935789;29;20657;-84
2022/01/03 02:35:38;;;;;;;2.78;1.10;;;18.40;53.60;;;;;;4909324;29;20294;-85
2022/01/03 02:38:07;;;;;;;3.28;1.35;;;18.30;53.60;;;;;;4925097;29;20182;-83
2022/01/03 02:40:36;;;;;;;1.77;1.20;;;18.30;53.70;;;;;;4909512;29;20646;-83
2022/01/03 02:43:05;;;;;;;2.25;1.38;;;18.30;53.80;;;;;;4909375;29;20198;-85
2022/01/03 02:45:34;;;;;;;1.98;1.30;;;18.30;53.90;;;;;;4940324;28;20181;-83
2022/01/03 02:48:22;;;;;;;2.90;1.25;;;18.30;53.90;;;;;;4950794;28;20551;-83
2022/01/03 02:50:51;;;;;;;3.83;1.20;;;18.30;53.80;;;;;;4972268;28;20195;-86
2022/01/03 02:53:20;;;;;;;2.53;1.33;;;18.30;54.10;;;;;;4990856;28;20233;-84
2022/01/03 02:55:46;;;;;;;4.18;1.50;;;18.20;53.90;;;;;;5036799;28;20214;-85
2022/01/03 02:58:12;;;;;;;3.13;1.63;;;18.20;53.90;;;;;;4989256;28;20210;-86
2022/01/03 03:00:48;;;;;;;2.08;1.35;;;18.20;53.90;;;;;;4978743;28;20232;-85
2022/01/03 03:03:21;;;;;;;2.90;1.38;;;18.20;53.90;;;;;;5033802;28;20180;-84
2022/01/03 03:05:53;;;;;;;4.70;1.25;;;18.20;54.00;;;;;;5073964;28;20285;-83
2022/01/03 03:08:34;;;;;;;3.83;1.30;;;18.20;54.00;;;;;;5106432;28;20543;-83
2022/01/03 03:11:12;;;;;;;2.03;1.42;;;18.20;54.80;;;;;;5105910;28;20175;-83
2022/01/03 03:13:38;;;;;;;3.63;1.10;;;18.20;54.10;;;;;;5120351;28;20148;-83
2022/01/03 03:16:12;;;;;;;4.65;1.30;;;18.20;54.00;;;;;;5120755;28;20663;-84
2022/01/03 03:18:46;;;;;;;2.22;1.20;;;18.20;54.20;;;;;;5104070;28;20216;-84
2022/01/03 03:21:14;;;;;;;1.95;1.20;;;18.20;54.00;;;;;;5058863;28;20181;-85
2022/01/03 03:23:39;;;;;;;2.78;1.60;;;18.20;54.00;;;;;;5075339;28;20158;-83
2022/01/03 03:26:09;;;;;;;4.07;1.23;;;18.20;53.90;;;;;;5075026;28;20246;-84
2022/01/03 03:28:37;;;;;;;1.83;1.25;;;18.20;54.00;;;;;;5062057;28;20594;-84
2022/01/03 03:31:06;;;;;;;2.80;1.20;;;18.20;54.10;;;;;;5061305;28;20272;-85
2022/01/03 03:33:36;;;;;;;2.10;1.23;;;18.20;54.10;;;;;;5078465;28;20268;-83
2022/01/03 03:36:02;;;;;;;2.85;1.40;;;18.20;54.20;;;;;;5077757;28;20675;-84
2022/01/03 03:38:30;;;;;;;4.82;1.50;;;18.20;54.00;;;;;;5077164;28;20184;-86
2022/01/03 03:41:00;;;;;;;5.20;1.50;;;18.20;54.10;;;;;;5061070;28;20154;-84
2022/01/03 03:43:25;;;;;;;3.38;1.35;;;18.20;54.00;;;;;;5060864;28;20540;-83
2022/01/03 03:46:00;;;;;;;1.88;1.30;;;18.10;54.00;;;;;;5060622;28;20169;-84
2022/01/03 03:48:26;;;;;;;5.47;1.85;;;18.20;54.20;;;;;;5061439;28;20188;-83
2022/01/03 03:50:54;;;;;;;3.15;1.30;;;18.10;54.20;;;;;;5077587;28;20172;-83
2022/01/03 03:53:26;;;;;;;1.60;1.10;;;18.20;54.20;;;;;;5070127;28;20220;-86
2022/01/03 03:55:51;;;;;;;2.53;1.33;;;18.20;54.30;;;;;;5080526;28;20541;-84
2022/01/03 03:58:23;;;;;;;4.18;1.65;;;18.10;54.20;;;;;;5063763;28;20191;-83
2022/01/03 04:00:49;;;;;;;3.03;1.45;;;18.10;54.10;;;;;;5056911;28;20178;-84
2022/01/03 04:03:22;;;;;;;1.83;1.45;;;18.10;54.00;;;;;;5073741;28;20179;-84
2022/01/03 04:05:48;;;;;;;3.22;1.30;;;18.10;54.80;;;;;;5057416;28;20212;-83
2022/01/03 04:08:26;;;;;;;2.33;1.00;;;18.10;54.00;;;;;;5057775;28;20182;-84
2022/01/03 04:10:52;;;;;;;2.78;1.40;;;18.10;54.00;;;;;;5057479;28;20182;-84
2022/01/03 04:13:18;;;;;;;2.65;1.10;;;18.10;54.20;;;;;;5073399;28;20184;-85
2022/01/03 04:15:52;;;;;;;1.85;1.10;;;18.10;54.10;;;;;;5056086;28;20198;-83
2022/01/03 04:18:19;;;;;;;2.90;1.40;;;18.10;54.20;;;;;;5069500;28;20169;-84
2022/01/03 04:20:56;;;;;;;3.33;1.20;;;18.10;54.00;;;;;;5057853;28;20177;-84
2022/01/03 04:23:29;;;;;;;3.35;1.30;;;18.20;54.00;;;;;;5055952;28;20182;-83
2022/01/03 04:26:04;;;;;;;2.47;1.13;;;18.20;53.60;;;;;;5072466;28;20638;-83
2022/01/03 04:28:29;;;;;;;3.60;1.05;;;18.20;53.40;;;;;;5031991;28;20190;-83
2022/01/03 04:30:59;;;;;;;3.92;1.50;;;18.30;53.20;;;;;;5019931;28;20186;-83
2022/01/03 04:33:28;;;;;;;2.20;1.13;;;18.30;53.40;;;;;;5018828;28;20715;-83
2022/01/03 04:35:55;;;;;;;1.73;1.10;;;18.30;53.20;;;;;;5019170;28;20213;-84
2022/01/03 04:38:20;;;;;;;3.35;1.20;;;18.40;53.20;;;;;;5019188;28;20182;-84
2022/01/03 04:40:47;;;;;;;3.92;1.38;;;18.40;53.20;;;;;;5019090;28;20569;-85
2022/01/03 04:43:15;;;;;;;2.03;1.10;;;18.40;53.20;;;;;;5035102;28;20175;-83
2022/01/03 04:45:44;;;;;;;1.98;0.90;;;18.40;53.20;;;;;;5019456;28;20186;-85
2022/01/03 04:48:20;;;;;;;2.67;1.40;;;18.40;53.10;;;;;;4979943;28;20188;-83
2022/01/03 04:50:45;;;;;;;4.40;1.45;;;18.50;53.00;;;;;;4980094;28;20168;-84
2022/01/03 04:53:25;;;;;;;2.92;1.10;;;18.50;52.90;;;;;;5006469;28;20223;-85
2022/01/03 04:55:53;;;;;;;2.03;1.02;;;18.50;53.10;;;;;;5017417;28;20690;-83
2022/01/03 04:58:25;;;;;;;2.50;1.17;;;18.50;52.90;;;;;;5019723;28;20174;-87
2022/01/03 05:00:53;;;;;;;3.28;1.20;;;18.50;52.80;;;;;;5059057;28;20193;-84
2022/01/03 05:03:20;;;;;;;2.45;1.08;;;18.50;53.60;;;;;;5042096;28;20173;-84
2022/01/03 05:05:48;;;;;;;3.38;1.05;;;18.50;52.80;;;;;;5019317;28;20194;-85
2022/01/03 05:08:16;;;;;;;2.90;1.20;;;18.60;52.80;;;;;;5002850;28;20179;-85
2022/01/03 05:10:44;;;;;;;2.08;1.00;;;18.60;52.80;;;;;;5018178;28;20183;-83
2022/01/03 05:13:13;;;;;;;2.05;1.20;;;18.60;52.80;;;;;;4975730;28;20185;-83
2022/01/03 05:15:43;;;;;;;1.40;0.95;;;18.60;52.70;;;;;;4976450;28;20208;-84
2022/01/03 05:18:09;;;;;;;1.75;1.17;;;18.60;52.60;;;;;;4978774;28;20185;-84
2022/01/03 05:20:36;;;;;;;1.35;0.95;;;18.60;52.60;;;;;;4995367;28;20160;-85
2022/01/03 05:23:10;;;;;;;2.58;1.30;;;18.70;52.50;;;;;;4996115;28;20204;-83
2022/01/03 05:25:48;;;;;;;2.38;1.10;;;18.70;52.50;;;;;;4996355;28;20205;-83
2022/01/03 05:28:20;;;;;;;1.83;0.90;;;18.70;52.30;;;;;;4996184;28;20188;-84
2022/01/03 05:30:46;;;;;;;2.60;0.98;;;18.70;52.40;;;;;;5027113;28;20268;-83
2022/01/03 05:33:11;;;;;;;2.53;1.20;;;18.70;52.30;;;;;;5015199;28;20624;-84
2022/01/03 05:35:37;;;;;;;2.88;1.10;;;18.70;52.30;;;;;;4998436;28;20241;-83
2022/01/03 05:38:03;;;;;;;1.10;0.95;;;18.70;52.30;;;;;;4999399;28;20175;-84
2022/01/03 05:40:33;;;;;;;1.63;1.10;;;18.70;52.30;;;;;;4999112;28;20167;-83
2022/01/03 05:43:06;;;;;;;1.23;0.98;;;18.70;52.30;;;;;;5000969;28;20266;-86
2022/01/03 05:45:35;;;;;;;3.08;1.00;;;18.70;52.20;;;;;;5057833;28;20169;-83
2022/01/03 05:48:01;;;;;;;1.65;1.20;;;18.70;52.20;;;;;;5074512;28;20299;-83
2022/01/03 05:50:35;;;;;;;1.63;1.20;;;18.70;52.10;;;;;;5054647;28;20213;-84
2022/01/03 05:53:03;;;;;;;4.07;1.30;;;18.80;52.20;;;;;;5055183;28;20603;-83
2022/01/03 05:55:29;;;;;;;3.13;1.10;;;18.80;52.10;;;;;;5037074;28;20209;-83
2022/01/03 05:58:00;;;;;;;2.15;1.10;;;18.70;52.00;;;;;;5038339;28;20165;-83
2022/01/03 06:00:27;;;;;;;2.10;1.02;;;18.80;52.00;;;;;;5037571;28;20189;-84
2022/01/03 06:02:58;;;;;;;2.30;1.20;;;18.80;51.90;;;;;;4998084;28;20754;-85
2022/01/03 06:05:42;;;;;;;1.08;0.90;;;18.80;52.60;;;;;;5010818;28;20255;-84
2022/01/03 06:08:09;;;;;;;3.63;1.20;;;18.90;52.00;;;;;;5008400;28;20191;-83
2022/01/03 06:10:41;;;;;;;1.67;1.10;;;18.80;51.90;;;;;;5005541;28;20219;-85
2022/01/03 06:13:08;;;;;;;1.90;0.90;;;18.80;51.90;;;;;;5013843;28;20246;-83
2022/01/03 06:15:39;;;;;;;1.17;0.90;;;18.80;51.80;;;;;;5010479;28;20274;-85
2022/01/03 06:18:10;;;;;;;1.00;0.90;;;18.80;51.80;;;;;;4976633;28;20691;-83
2022/01/03 06:20:45;;;;;;;3.55;0.90;;;18.90;51.90;;;;;;4985432;28;20178;-85
2022/01/03 06:23:12;;;;;;;2.00;1.30;;;18.90;51.80;;;;;;5036435;28;20186;-84
2022/01/03 06:25:47;;;;;;;1.85;0.90;;;18.90;51.80;;;;;;5034466;28;20186;-83
2022/01/03 06:28:15;;;;;;;3.05;1.20;;;18.90;51.70;;;;;;5036952;28;20711;-82
2022/01/03 06:31:02;;;;;;;1.65;1.10;;;18.90;51.70;;;;;;5021063;28;20194;-83
2022/01/03 06:33:36;;;;;;;1.45;0.98;;;18.80;51.60;;;;;;5032998;28;20603;-83
2022/01/03 06:36:21;;;;;;;1.13;1.00;;;18.90;51.60;;;;;;5059754;28;20212;-83
2022/01/03 06:39:12;;;;;;;1.50;0.90;;;18.90;51.70;;;;;;5025089;28;20181;-85
2022/01/03 06:41:44;;;;;;;1.80;1.00;;;18.90;51.70;;;;;;5017179;28;20720;-83
2022/01/03 06:44:14;;;;;;;1.15;0.90;;;18.90;51.50;;;;;;5001383;28;20319;-83
2022/01/03 06:46:42;;;;;;;1.40;1.13;;;19.00;51.50;;;;;;5017906;28;20211;-83
2022/01/03 06:49:14;;;;;;;1.02;0.93;;;19.00;51.50;;;;;;5013164;28;20195;-83
2022/01/03 06:51:56;;;;;;;1.35;0.90;;;19.00;51.40;;;;;;5042345;28;20675;-84
2022/01/03 06:54:26;;;;;;;1.80;0.93;;;19.00;51.40;;;;;;5075191;28;20223;-83
2022/01/03 06:57:16;;;;;;;1.58;1.10;;;19.00;51.40;;;;;;5069063;28;20639;-83
2022/01/03 06:59:46;;;;;;;2.47;1.10;;;19.00;51.40;;;;;;5028061;28;20175;-83
2022/01/03 07:02:24;;;;;;;2.97;1.10;;;19.00;51.40;;;;;;5041692;28;20707;-83
2022/01/03 07:04:53;;;;;;;1.25;0.70;;;19.00;51.40;;;;;;5056265;28;20163;-83
2022/01/03 07:07:21;;;;;;;2.70;1.23;;;19.00;51.40;;;;;;5041484;28;20187;-84
2022/01/03 07:09:46;;;;;;;1.20;1.05;;;19.00;51.30;;;;;;5057754;28;20633;-83
2022/01/03 07:12:16;;;;;;;2.22;0.90;;;19.00;51.30;;;;;;5074657;28;20338;-84
2022/01/03 07:20:15;;;;;;;1.17;0.90;;;19.10;51.10;;;;;;5075227;28;20177;-83
2022/01/03 07:22:44;;;;;;;1.20;0.90;;;19.00;51.10;;;;;;5048762;28;20184;-83
2022/01/03 07:25:19;;;;;;;2.63;1.02;;;19.10;51.10;;;;;;5065611;28;20197;-84
2022/01/03 07:27:50;;;;;;;1.35;1.00;;;19.10;51.10;;;;;;5083946;28;20187;-84
2022/01/03 07:30:16;;;;;;;1.05;0.85;;;19.10;51.10;;;;;;5087754;28;20210;-84
2022/01/03 07:33:02;;;;;;;1.58;1.00;;;19.10;51.10;;;;;;5088763;28;20208;-83
2022/01/03 07:35:36;;;;;;;1.30;0.90;;;19.00;51.10;;;;;;5090800;28;20201;-83
2022/01/03 07:38:08;;;;;;;1.52;0.85;;;19.10;51.10;;;;;;5089338;28;20203;-83
2022/01/03 07:40:34;;;;;;;4.10;1.10;;;19.10;51.20;;;;;;5089848;28;20161;-83
2022/01/03 07:43:01;;;;;;;1.50;0.80;;;19.10;51.00;;;;;;5089576;28;20207;-83
2022/01/03 07:45:31;;;;;;;1.25;0.90;;;19.00;51.00;;;;;;5104911;28;20534;-83
2022/01/03 07:47:56;;;;;;;1.35;0.73;;;19.10;51.00;;;;;;5085116;28;20181;-84
2022/01/03 07:53:13;;;;;;;2.22;0.90;;;19.10;51.00;;;;;;5010797;28;20743;-84
2022/01/03 07:56:10;;;;;;;1.23;0.82;;;19.00;50.90;;;;;;5019021;28;20292;-84
2022/01/03 07:58:47;;;;;;;0.90;0.70;;;19.10;50.90;;;;;;5003125;28;20185;-83
2022/01/03 08:01:16;;;;;;;1.15;0.80;;;19.10;51.00;;;;;;5002550;28;20267;-83
2022/01/03 08:03:47;;;;;;;1.23;1.00;;;19.10;50.90;;;;;;4985937;28;20243;-83
2022/01/03 08:06:20;;;;;;;3.15;0.90;;;19.10;50.90;;;;;;5019232;28;20180;-85
2022/01/03 08:08:46;;;;;;;1.08;0.80;;;19.10;50.80;;;;;;5001676;28;20184;-84
2022/01/03 08:11:15;;;;;;;1.75;1.02;;;19.10;50.80;;;;;;5001611;28;20233;-84
2022/01/03 08:13:41;;;;;;;1.42;1.10;;;19.10;51.40;;;;;;5003637;28;20191;-83
2022/01/03 08:16:16;;;;;;;1.13;0.90;;;19.10;50.80;;;;;;5002561;28;20208;-83
2022/01/03 08:18:49;;;;;;;1.08;0.98;;;19.20;50.80;;;;;;5002969;28;20182;-83
2022/01/03 08:21:15;;;;;;;0.80;0.75;;;19.20;50.70;;;;;;5006275;28;20210;-85
2022/01/03 08:23:43;;;;;;;1.42;0.90;;;19.10;50.70;;;;;;5025235;28;20212;-83
2022/01/03 08:26:12;;;;;;;1.27;0.82;;;19.10;50.90;;;;;;5039645;28;20217;-83
2022/01/03 08:28:39;;;;;;;1.40;0.82;;;19.10;50.80;;;;;;5041654;28;20556;-83
2022/01/03 08:31:04;;;;;;;1.15;0.90;;;19.20;50.80;;;;;;5097376;28;20214;-84
2022/01/03 08:33:35;;;;;;;1.33;0.70;;;19.20;50.60;;;;;;5103264;28;20609;-83
2022/01/03 08:36:05;;;;;;;1.02;0.90;;;19.20;50.60;;;;;;5102285;28;20196;-83
2022/01/03 08:38:31;;;;;;;1.58;0.90;;;19.20;50.40;;;;;;5103457;28;20620;-84
2022/01/03 08:41:00;;;;;;;1.80;0.90;;;19.20;50.50;;;;;;5128480;27;20174;-84
2022/01/03 08:43:26;;;;;;;1.25;0.90;;;19.20;50.50;;;;;;5141683;27;20189;-83
2022/01/03 08:46:01;;;;;;;2.83;0.85;;;19.20;50.50;;;;;;5145305;27;20200;-86
2022/01/03 08:48:28;;;;;;;1.33;0.88;;;19.20;50.40;;;;;;5128218;27;20214;-83
2022/01/03 08:50:54;;;;;;;1.05;0.85;;;19.10;50.40;;;;;;5124525;27;20658;-85
2022/01/03 08:53:25;;;;;;;0.80;0.80;;;19.20;50.30;;;;;;5123817;27;20242;-84
2022/01/03 08:55:59;;;;;;;1.05;0.90;;;19.20;50.40;;;;;;5115374;28;20237;-84
2022/01/03 08:58:25;;;;;;;1.73;1.15;;;19.20;50.40;;;;;;5082011;28;20588;-85
2022/01/03 09:01:04;;;;;;;1.73;1.33;;;19.20;50.60;;;;;;5066332;28;20204;-84
2022/01/03 09:03:29;;;;;;;1.38;0.93;;;19.20;50.40;;;;;;5041107;28;20622;-84
2022/01/03 09:05:59;;;;;;;1.45;0.88;;;19.20;50.50;;;;;;5058833;28;20205;-83
2022/01/03 09:08:25;;;;;;;1.67;1.10;;;19.20;50.50;;;;;;5058951;28;20182;-84
2022/01/03 09:10:54;;;;;;;2.25;0.93;;;19.20;50.60;;;;;;5058094;28;20213;-84
2022/01/03 09:13:20;;;;;;;2.10;1.05;;;19.20;50.70;;;;;;5058757;28;20233;-83
2022/01/03 09:15:46;;;;;;;1.10;0.80;;;19.20;50.70;;;;;;5039373;28;20313;-84
2022/01/03 09:18:16;;;;;;;0.95;0.82;;;19.20;50.70;;;;;;5007102;28;20182;-83
2022/01/03 09:20:42;;;;;;;2.00;1.00;;;19.20;50.60;;;;;;5023191;28;20708;-83
2022/01/03 09:23:18;;;;;;;0.93;0.80;;;19.30;50.40;;;;;;5023110;28;20182;-84
2022/01/03 09:31:38;;;;;;;1.48;0.75;;;19.20;50.50;;;;;;5024334;28;20574;-84
2022/01/03 09:34:06;;;;;;;1.25;0.88;;;19.20;50.40;;;;;;5028011;28;20521;-84
2022/01/03 09:37:03;;;;;;;1.20;1.00;;;19.20;50.30;;;;;;5004351;28;20214;-83
2022/01/03 09:39:35;;;;;;;4.00;1.20;;;19.20;50.40;;;;;;5021680;28;20207;-82
2022/01/03 09:42:11;;;;;;;1.55;0.90;;;19.20;50.70;;;;;;5004965;28;20175;-84
2022/01/03 09:44:36;;;;;;;3.53;1.13;;;19.20;50.70;;;;;;4980343;28;20202;-83
2022/01/03 09:47:04;;;;;;;6.82;1.17;;;19.20;50.50;;;;;;5002985;28;20187;-84
2022/01/03 09:49:40;;;;;;;4.78;1.00;;;19.20;50.80;;;;;;5033252;28;20182;-85
2022/01/03 09:52:11;;;;;;;2.78;1.10;;;19.20;50.70;;;;;;4977256;28;20549;-85
2022/01/03 09:54:37;;;;;;;2.47;1.08;;;19.20;50.90;;;;;;4970159;28;20731;-84
2022/01/03 09:57:15;;;;;;;3.42;1.10;;;19.20;50.80;;;;;;4946108;28;20220;-84
2022/01/03 09:59:43;;;;;;;4.00;1.10;;;19.20;50.50;;;;;;4979086;28;20658;-83
2022/01/03 10:02:19;;;;;;;4.60;1.10;;;19.20;50.60;;;;;;4978212;28;20275;-85
2022/01/03 10:04:55;;;;;;;5.07;0.90;;;19.20;50.70;;;;;;4937888;29;20209;-84
2022/01/03 10:07:22;;;;;;;4.82;1.05;;;19.20;50.70;;;;;;4922193;29;20183;-83
2022/01/03 10:09:49;;;;;;;5.75;0.85;;;19.20;50.70;;;;;;4938647;29;20262;-84
2022/01/03 10:12:21;;;;;;;2.85;1.00;;;19.20;50.80;;;;;;4915539;29;20687;-84
2022/01/03 10:14:53;;;;;;;3.03;1.13;;;19.20;51.10;;;;;;4954599;28;20216;-83
2022/01/03 10:17:38;;;;;;;2.95;1.10;;;19.20;51.10;;;;;;4959596;28;20207;-85
2022/01/03 10:20:17;;;;;;;5.25;1.25;;;19.20;51.10;;;;;;4964153;28;20792;-83
2022/01/03 10:23:14;;;;;;;2.35;0.90;;;19.20;50.70;;;;;;4984303;28;20193;-83
2022/01/03 10:25:46;;;;;;;7.43;1.05;;;19.20;51.00;;;;;;4989454;28;20215;-84
2022/01/03 10:28:23;;;;;;;3.75;0.95;;;19.20;50.90;;;;;;4968847;28;20203;-82
2022/01/03 10:30:49;;;;;;;3.20;1.05;;;19.20;50.70;;;;;;4970339;28;20317;-85
2022/01/03 10:33:27;;;;;;;5.30;1.20;;;19.20;50.70;;;;;;4969645;28;20184;-84
2022/01/03 10:35:57;;;;;;;3.72;1.00;;;19.20;50.70;;;;;;5004241;28;20217;-83
2022/01/03 10:38:43;;;;;;;2.97;1.23;;;19.30;50.70;;;;;;5004825;28;20593;-83
2022/01/03 10:41:14;;;;;;;4.95;1.20;;;19.30;50.50;;;;;;4983198;28;20217;-82
2022/01/03 10:43:53;;;;;;;5.93;1.27;;;19.20;50.50;;;;;;4945636;29;20188;-83
2022/01/03 10:46:29;;;;;;;4.43;1.40;;;19.30;50.80;;;;;;4907067;29;20213;-82
2022/01/03 10:49:16;;;;;;;4.18;1.15;;;19.20;50.80;;;;;;4907449;29;20187;-83
2022/01/03 10:51:48;;;;;;;3.35;1.00;;;19.40;50.90;;;;;;4894579;29;20695;-83
2022/01/03 10:54:36;;;;;;;4.85;1.00;;;19.30;50.70;;;;;;4901673;29;20565;-83
2022/01/03 10:57:08;;;;;;;4.72;1.20;;;19.20;50.60;;;;;;4947537;29;20225;-84
2022/01/03 10:59:38;;;;;;;4.65;1.30;;;19.20;50.70;;;;;;4955251;28;20203;-84
2022/01/03 11:02:05;;;;;;;3.15;1.23;;;19.20;50.80;;;;;;4944151;29;20201;-83
2022/01/03 11:04:50;;;;;;;4.10;1.00;;;19.20;50.90;;;;;;4944083;29;20273;-82
2022/01/03 11:13:15;;;;;;;3.22;1.10;;;19.30;51.00;;;;;;4978176;28;20281;-84
2022/01/03 11:16:06;;;;;;;2.25;1.15;;;19.10;50.90;;;;;;4923494;29;20286;-84
2022/01/03 11:18:49;;;;;;;3.35;1.17;;;19.20;51.20;;;;;;4958895;29;20188;-85
2022/01/03 11:21:24;;;;;;;3.92;0.85;;;19.20;51.10;;;;;;4954946;29;20292;-85
2022/01/03 11:24:13;;;;;;;6.70;1.25;;;19.30;51.10;;;;;;4937052;29;20238;-84
2022/01/03 11:26:47;;;;;;;4.00;1.00;;;19.30;51.40;;;;;;4866215;29;20770;-84
2022/01/03 11:29:17;;;;;;;4.68;1.00;;;19.30;51.40;;;;;;4813269;29;20229;-83
2022/01/03 11:31:55;;;;;;;4.07;1.20;;;19.30;51.20;;;;;;4799957;29;20190;-83
2022/01/03 11:34:29;;;;;;;6.68;1.05;;;19.30;51.20;;;;;;4814222;29;20240;-83
2022/01/03 11:37:18;;;;;;;2.40;1.17;;;19.30;51.20;;;;;;4801216;29;20220;-84
2022/01/03 11:39:55;;;;;;;6.97;1.20;;;19.20;51.00;;;;;;4854696;29;20693;-82
2022/01/03 11:42:27;;;;;;;3.95;1.15;;;19.30;51.10;;;;;;4873611;29;20289;-83
2022/01/03 11:45:03;;;;;;;4.88;0.98;;;19.20;51.10;;;;;;4886031;29;20192;-83
2022/01/03 11:47:31;;;;;;;5.75;1.05;;;19.30;51.20;;;;;;4861183;29;20184;-83
2022/01/03 11:50:04;;;;;;;3.83;1.35;;;19.20;50.90;;;;;;4889501;29;20195;-82
2022/01/03 11:52:37;;;;;;;9.15;1.10;;;19.30;51.00;;;;;;4862523;29;20212;-82
2022/01/03 11:55:34;;;;;;;3.90;0.95;;;19.30;51.10;;;;;;4864830;29;20748;-82
2022/01/03 12:04:12;;;;;;;3.05;1.15;;;19.20;51.50;;;;;;4930027;29;20189;-83
2022/01/03 12:06:41;;;;;;;3.55;1.20;;;19.20;51.40;;;;;;4920208;29;20183;-85
2022/01/03 12:09:22;;;;;;;8.82;1.50;;;19.20;51.60;;;;;;4925678;29;20262;-84
2022/01/03 12:11:56;;;;;;;9.00;1.50;;;19.30;51.70;;;;;;4952377;28;20237;-84
2022/01/03 12:14:47;;;;;;;10.10;1.48;;;19.20;51.50;;;;;;4934911;29;20578;-83
2022/01/03 12:17:17;;;;;;;8.95;1.42;;;19.20;51.50;;;;;;4928329;29;20222;-85
2022/01/03 12:20:43;;;;;;;4.95;1.30;;;19.20;51.60;;;;;;4934777;29;20246;-84
2022/01/03 12:23:46;;;;;;;7.40;1.42;;;19.30;51.60;;;;;;4870197;29;20196;-85
2022/01/03 12:26:19;;;;;;;4.72;1.08;;;19.30;51.70;;;;;;4818666;29;20870;-83
2022/01/03 12:29:05;;;;;;;4.22;1.20;;;19.20;51.40;;;;;;4797287;30;20191;-84
2022/01/03 12:32:13;;;;;;;4.43;1.20;;;19.20;51.50;;;;;;4831259;29;20217;-84
2022/01/03 12:35:10;;;;;;;3.95;1.58;;;19.20;51.50;;;;;;4815481;29;20616;-83
2022/01/03 12:38:10;;;;;;;7.70;1.20;;;19.30;51.40;;;;;;4837387;29;20192;-84
2022/01/03 12:41:01;;;;;;;;;;;;;;;;;;;;;
2022/01/03 12:43:53;;;;;;;2.70;1.33;;;19.30;51.20;;;;;;4834641;29;20253;-82
2022/01/03 12:46:42;;;;;;;7.20;1.50;;;19.30;50.90;;;;;;4801269;29;20228;-83
2022/01/03 12:49:33;;;;;;;2.63;1.20;;;19.30;51.00;;;;;;4836686;29;20285;-84
2022/01/03 12:52:23;;;;;;;2.83;1.15;;;19.30;51.10;;;;;;4887302;29;20226;-84
2022/01/03 12:55:47;;;;;;;3.03;1.10;;;19.30;51.30;;;;;;4893149;29;20222;-84
2022/01/03 12:58:48;;;;;;;2.70;0.90;;;19.30;51.10;;;;;;4890428;29;20196;-84
2022/01/03 13:01:35;;;;;;;5.70;1.05;;;19.30;50.90;;;;;;4925263;29;20180;-84
2022/01/03 13:04:33;;;;;;;8.48;1.27;;;19.30;50.90;;;;;;4925848;29;20219;-84
2022/01/03 13:07:02;;;;;;;1.83;0.95;;;19.30;50.80;;;;;;4926958;29;20301;-84
2022/01/03 13:09:56;;;;;;;1.73;1.05;;;19.30;50.90;;;;;;4926171;29;20182;-83
2022/01/03 13:12:41;;;;;;;2.10;1.08;;;19.30;50.80;;;;;;4888925;29;20195;-84
2022/01/03 13:15:10;;;;;;;3.75;1.10;;;19.30;50.70;;;;;;4894182;29;20182;-83
2022/01/03 13:17:43;;;;;;;2.15;1.00;;;19.30;50.90;;;;;;4947618;29;20191;-84
2022/01/03 13:20:12;;;;;;;2.60;0.98;;;19.30;50.60;;;;;;4876758;29;20611;-83
2022/01/03 13:22:51;;;;;;;3.38;1.08;;;19.30;50.60;;;;;;4889669;29;20230;-83
2022/01/03 13:25:20;;;;;;;2.33;0.93;;;19.30;50.50;;;;;;4870069;29;20184;-83
2022/01/03 13:28:01;;;;;;;2.13;1.10;;;19.30;50.80;;;;;;4855928;29;20185;-83
2022/01/03 13:30:31;;;;;;;1.80;1.10;;;19.30;50.70;;;;;;4850724;29;20197;-84
2022/01/03 13:33:00;;;;;;;5.63;1.30;;;19.30;50.80;;;;;;4851120;29;20657;-84
2022/01/03 13:35:25;;;;;;;2.72;1.10;;;19.30;50.80;;;;;;4851710;29;20654;-84
2022/01/03 13:38:18;;;;;;;2.67;1.20;;;19.30;50.70;;;;;;4852063;29;20185;-83
2022/01/03 13:41:11;;;;;;;4.38;1.15;;;19.30;50.70;;;;;;4852565;29;20189;-83
2022/01/03 13:44:08;;;;;;;3.88;1.33;;;19.30;50.90;;;;;;4900985;29;20182;-83
2022/01/03 13:49:22;;;;;;;1.50;1.10;;;19.30;50.90;;;;;;4935297;29;20191;-83
2022/01/03 13:51:57;;;;;;;4.72;1.30;;;19.30;51.20;;;;;;4975495;28;20228;-82
2022/01/03 13:54:39;;;;;;;4.18;1.27;;;19.30;51.40;;;;;;4978133;28;20204;-83
2022/01/03 13:57:17;;;;;;;3.20;1.13;;;19.30;51.00;;;;;;5019884;28;20211;-82